Hauptseite
METAR-TAF:

METAR-TAF

Flughäfen :

Wonderboom Airport

Pretoria, Südafrika

Breite: 25-39S, Länge: 028-13E, Höhe: 1248 m

Beobachtung

Neuester Wetterbericht von vor 20 Minuten, um 22:00 UTC
Windstille
Temperatur 7°C
Luftfeuchtigkeit 81%
Luftdruck 1027 hPa

METAR: FAWB 022200Z AUTO 00000KT //// // ////// 07/04 Q1027

Zeit: 00:20 (22:20 UTC)

Prognose

Neuester Wetterbericht von vor 13 Stunden und 20 Minuten, um 09:00 UTC
Gültige Prognose vom 02 um 10 UTC bis 02 um 18 UTC
Wind 3 kt aus unterschiedlichen Richtungen
Sichtweite 10 km oder mehr
keine Wolken unter 1500 m und keine Kumulonimbus oder Gewitterwolken

TAF: FAWB 020900Z 0210/0218 VRB03KT CAVOK TX25/0213Z TN13/0218Z

Wetterbeobachtungen und Prognosen von mehr als 4000 Flughäfen (METAR und TAF Bericht).

Die verfügbaren Stationen werden durch gelbe und rote Markierungen auf der Karte dargestellt.

Führen Sie die Maus auf sie, um den Namen der Station zu sehen.

Darauf klicken, um die Beobachtung von Wetterbeobachtungen und Prognosen zu sehen.

Um die Karte zu ändern : klicken Sie auf den grünen Tasten mit einem schwarzen Kreuz Zum Vergrößern, auf den grünen Button mit einem Gedankenstrich zu verkleinern, oder auf die grünen Pfeile für benachbarte Karten.


METAR-TAF: